TNCM

Details ICAO TNCM (SXM)
Name St Maarten - Princess Juliana Intl
Region Caribbean Netherlands, Aruba, Curaçao, Sint Maarten
Timezone Unknown (UTC+0.0)
Plans Departing 2050
Arriving 3111
Stats Elevation 12 ft / 4 m (AMSL)
Location 18.040889° -63.108974°
Runways 1
Magnetic Variation 14.325° W
Sunrise 2017-12-18 10:39:02 UTC / 2017-12-18 10:39:02 Local
Sunset 2017-12-18 21:41:56 UTC / 2017-12-18 21:41:56 Local
Advertisement - Login to hide

Runways

ID Width Length Bearing (true) Bearing (mag) Surface Threshold Offset Overrun Length
10 148 ft / 45 m 7,464 ft / 2,275 m 81.43° 95.76° Asphalt 0 ft / 0 m 151 ft / 46 m
28 148 ft / 45 m 7,464 ft / 2,275 m 261.44° 275.77° Asphalt 397 ft / 121 m 0 ft / 0 m

Map

Weather


0- 5 10 15 20 25 30 35+ Temperature / ° C

Clouds and Precipitation
Forecast for 2017-12-18 18:00 UTC. Updated 2 hours ago

Ground ~20,000 ft ~40,000 ft Winds

METAR

TNCM 181900Z 07012KT 030V100 9999 VCSH BKN018 28/22 Q1016 A3000 NOSIG

TAF

TAF TNCM 181720Z 1818/1918 08015KT P6SM VCSH SCT022 FM182300 07010KT P6SM FEW018

Frequencies

Tower 118.70 MHz JULIANA TWR
Approach 128.94 MHz JULIANA APP
Warning: Do not use this data for real-world aviation or navigation. No guarantee of current accuracy is given.